Terminal Aerodrome Forecast
Issued by NWS

Home | Current Version | Previous Version | Text Only | Print | Product List | Glossary On
Versions: 1 2 3 4 5 6 7 8 9 10 11 12 13 14 15 16
000
FTAK31 PAJN 242335
TAFAWG
TAF
PAWG 242335Z 2500/2524 11010KT P6SM BKN040 OVC060 WS020/16035KT
      TEMPO 2500/2504 14010G20KT 6SM -RA BKN035 OVC050
     FM250600 12008G15KT 4SM -RA BR SCT015 OVC025
     FM251500 12010KT 4SM -RA BR OVC025
     FM252100 VRB06KT 4SM -RA BR SCT010 OVC025
      AMD LTD TO CLD VIS AND WIND 2506/2515=

USA.gov is the U.S. government's official web portal to all federal, state and local government web resources and services.